Norbank — PGIS — position and weather

sailwx.info

Track history (hours):
 
Tides and Currents Weather Stations Pressure Air Temp Water Temp Dewpoint Dewpoint Depression Visibility Wind Speed Wind Dir Waves Ship Positions

Norbank

Operator: P & O Ferries

Last reported at 2020-Jul-07 18:30 UTC. Time now 2020-Jul-07 19:38 UTC.
Position N 53°27' W 003°01'.

Length 167 m; draft 5.8 m.

Type: Ship (hazmat cat B). MMSI: 246213000.

Date/timePositionNaut miles runAvg speedWind from/ knotsBaromVisibWave heightAir tempDewpointWater temp
2020-Jul-07 18:30N 53°27' W 003°01'0 0.2
2020-Jul-07 15:59N 53°27' W 003°01'6 6.0
2020-Jul-07 15:00N 53°31' W 003°07'1616.4
2020-Jul-07 14:00N 53°31' W 003°35'1716.6
2020-Jul-07 13:00N 53°34' W 004°03'7914.3
2020-Jul-07 07:30N 53°21' W 006°13'0 0.0
2020-Jul-07 05:26N 53°21' W 006°13'0 0.0
2020-Jul-07 04:59N 53°21' W 006°13'12 8.3
2020-Jul-07 03:30N 53°23' W 005°53'1019.3
2020-Jul-07 03:00N 53°26' W 005°37'6619.8
2020-Jul-06 23:40N 53°34' W 003°47'2118.0
2020-Jul-06 22:30N 53°31' W 003°12'8 2.2
2020-Jul-06 19:00N 53°27' W 003°01'0 0.3
2020-Jul-06 18:28N 53°27' W 003°01'0 0.0
2020-Jul-06 17:28N 53°27' W 003°01'0 0.0
2020-Jul-06 17:00N 53°27' W 003°01'0 0.0
2020-Jul-06 11:58N 53°27' W 003°01'0 0.0
2020-Jul-06 10:58N 53°27' W 003°01'0 0.0
2020-Jul-06 10:00N 53°27' W 003°01'0 0.2
2020-Jul-06 09:30N 53°27' W 003°01'0 0.0
2020-Jul-06 08:30N 53°27' W 003°01'0 0.0
2020-Jul-06 08:00N 53°27' W 003°01'0 0.1
2020-Jul-06 04:31N 53°27' W 003°01'1510.2
2020-Jul-06 03:00N 53°31' W 003°26'917.8
2020-Jul-06 02:30N 53°31' W 003°41'8913.7
2020-Jul-05 20:00N 53°21' W 006°09'2 0.6
2020-Jul-05 15:58N 53°21' W 006°13'0 0.0
2020-Jul-05 15:28N 53°21' W 006°13'0 0.0
2020-Jul-05 12:27N 53°21' W 006°13'0 0.0
2020-Jul-05 10:29N 53°21' W 006°13'0 0.0
2020-Jul-05 05:12N 53°21' W 006°13'11 9.4
2020-Jul-05 04:00N 53°23' W 005°55'10218.5
2020-Jul-04 22:30N 53°29' W 003°04'2 1.0
2020-Jul-04 19:58N 53°27' W 003°01'0 0.0
2020-Jul-04 19:28N 53°27' W 003°01'0 0.0
2020-Jul-04 18:30N 53°27' W 003°01'37 6.2
2020-Jul-04 12:30N 53°33' W 004°03'66 6.9
2020-Jul-04 03:00N 53°23' W 005°52'9317.0
2020-Jul-03 21:31N 53°31' W 003°16'815.6
2020-Jul-03 21:00N 53°28' W 003°04'2 0.6
2020-Jul-03 17:58N 53°27' W 003°01'0 0.0
2020-Jul-03 16:30N 53°27' W 003°01'0 0.0
2020-Jul-03 16:00N 53°27' W 003°01'0 0.9
2020-Jul-03 15:30N 53°27' W 003°01'6 5.7
2020-Jul-03 14:30N 53°31' W 003°07'714.9
2020-Jul-03 14:00N 53°31' W 003°20'917.1
2020-Jul-03 13:30N 53°31' W 003°34'6917.0
2020-Jul-03 09:25N 53°21' W 005°29'818.9
2020-Jul-03 08:59N 53°20' W 005°43'919.1
2020-Jul-03 08:30N 53°20' W 005°58'9 3.8
2020-Jul-03 06:11N 53°21' W 006°13'0 0.1
2020-Jul-03 04:00N 53°21' W 006°13'1313.2
2020-Jul-03 03:00N 53°24' W 005°51'816.7
2020-Jul-03 02:30N 53°26' W 005°37'9315.5
2020-Jul-02 20:31N 53°27' W 003°01'0 0.0
2020-Jul-02 19:29N 53°27' W 003°01'0 0.0
2020-Jul-02 18:28N 53°27' W 003°01'0 0.0
2020-Jul-02 16:01N 53°27' W 003°01'6 4.2
2020-Jul-02 14:31N 53°32' W 003°09'9617.3
2020-Jul-02 09:00N 53°24' W 005°49'15 5.4
2020-Jul-02 06:15N 53°21' W 006°13'0 0.1
2020-Jul-02 04:00N 53°21' W 006°13'5 9.8
2020-Jul-02 03:30N 53°20' W 006°04'11012.2
2020-Jul-01 18:30N 53°27' W 003°01'0 0.0
2020-Jul-01 16:00N 53°27' W 003°01'22 8.8
2020-Jul-01 13:30N 53°31' W 003°37'9311.6
2020-Jul-01 05:27N 53°21' W 006°13'0 0.3
2020-Jul-01 04:00N 53°21' W 006°12'2114.2
2020-Jul-01 02:30N 53°26' W 005°38'8917.8
2020-Jun-30 21:31N 53°32' W 003°09'6 2.1
2020-Jun-30 18:30N 53°27' W 003°01'0 0.0
2020-Jun-30 17:59N 53°27' W 003°01'0 0.0
2020-Jun-30 17:29N 53°27' W 003°01'0 0.0
2020-Jun-30 16:29N 53°27' W 003°01'0 0.4
2020-Jun-30 15:30N 53°27' W 003°01'6 6.3
2020-Jun-30 14:31N 53°32' W 003°08'1716.6
2020-Jun-30 13:31N 53°31' W 003°36'9415.6
2020-Jun-30 07:28N 53°21' W 006°13'0 0.0
2020-Jun-30 06:19N 53°21' W 006°13'5 1.8
2020-Jun-30 03:30N 53°20' W 006°05'1414.1
2020-Jun-30 02:30N 53°25' W 005°42'7015.9
2020-Jun-29 22:06N 53°34' W 003°46'1016.7
2020-Jun-29 21:30N 53°33' W 003°29'18 3.5
2020-Jun-29 16:30N 53°27' W 003°01'0 0.0
2020-Jun-29 16:00N 53°27' W 003°01'0 0.0
2020-Jun-29 13:59N 53°27' W 003°01'0 0.0
2020-Jun-29 13:29N 53°27' W 003°01'0 0.0
2020-Jun-29 06:59N 53°27' W 003°01'0 0.3
2020-Jun-29 05:30N 53°27' W 003°01'8 8.4
2020-Jun-29 04:31N 53°31' W 003°13'10810.7
2020-Jun-28 18:30N 53°21' W 006°13'0 0.0
2020-Jun-28 14:28N 53°21' W 006°13'0 0.0
2020-Jun-28 13:30N 53°21' W 006°13'0 0.0
2020-Jun-28 11:45N 53°21' W 006°13'0 0.0
2020-Jun-28 07:28N 53°21' W 006°13'0 0.1
2020-Jun-28 05:00N 53°21' W 006°13'8413.9
2020-Jun-27 22:58N 53°34' W 003°54'714.9
2020-Jun-27 22:30N 53°33' W 003°43'25 8.4
2020-Jun-27 19:29N 53°27' W 003°01'0 0.0
2020-Jun-27 18:59N 53°27' W 003°01'  
Track history (hours):
 
Tides and Currents Weather Stations Pressure Air Temp Water Temp Dewpoint Dewpoint Depression Visibility Wind Speed Wind Dir Waves Ship Positions

Norbank

Operator: P & O Ferries

Last reported at 2020-Jul-07 18:30 UTC. Time now 2020-Jul-07 19:38 UTC.
Position N 53°27' W 003°01'.

Length 167 m; draft 5.8 m.

Type: Ship (hazmat cat B). MMSI: 246213000.

Date/timePositionNaut miles runAvg speedWind from/ knotsBaromVisibWave heightAir tempDewpointWater temp
2020-Jul-07 18:30N 53°27' W 003°01'0 0.2
2020-Jul-07 15:59N 53°27' W 003°01'6 6.0
2020-Jul-07 15:00N 53°31' W 003°07'1616.4
2020-Jul-07 14:00N 53°31' W 003°35'1716.6
2020-Jul-07 13:00N 53°34' W 004°03'7914.3
2020-Jul-07 07:30N 53°21' W 006°13'0 0.0
2020-Jul-07 05:26N 53°21' W 006°13'0 0.0
2020-Jul-07 04:59N 53°21' W 006°13'12 8.3
2020-Jul-07 03:30N 53°23' W 005°53'1019.3
2020-Jul-07 03:00N 53°26' W 005°37'6619.8
2020-Jul-06 23:40N 53°34' W 003°47'2118.0
2020-Jul-06 22:30N 53°31' W 003°12'8 2.2
2020-Jul-06 19:00N 53°27' W 003°01'0 0.3
2020-Jul-06 18:28N 53°27' W 003°01'0 0.0
2020-Jul-06 17:28N 53°27' W 003°01'0 0.0
2020-Jul-06 17:00N 53°27' W 003°01'0 0.0
2020-Jul-06 11:58N 53°27' W 003°01'0 0.0
2020-Jul-06 10:58N 53°27' W 003°01'0 0.0
2020-Jul-06 10:00N 53°27' W 003°01'0 0.2
2020-Jul-06 09:30N 53°27' W 003°01'0 0.0
2020-Jul-06 08:30N 53°27' W 003°01'0 0.0
2020-Jul-06 08:00N 53°27' W 003°01'0 0.1
2020-Jul-06 04:31N 53°27' W 003°01'1510.2
2020-Jul-06 03:00N 53°31' W 003°26'917.8
2020-Jul-06 02:30N 53°31' W 003°41'8913.7
2020-Jul-05 20:00N 53°21' W 006°09'2 0.6
2020-Jul-05 15:58N 53°21' W 006°13'0 0.0
2020-Jul-05 15:28N 53°21' W 006°13'0 0.0
2020-Jul-05 12:27N 53°21' W 006°13'0 0.0
2020-Jul-05 10:29N 53°21' W 006°13'0 0.0
2020-Jul-05 05:12N 53°21' W 006°13'11 9.4
2020-Jul-05 04:00N 53°23' W 005°55'10218.5
2020-Jul-04 22:30N 53°29' W 003°04'2 1.0
2020-Jul-04 19:58N 53°27' W 003°01'0 0.0
2020-Jul-04 19:28N 53°27' W 003°01'0 0.0
2020-Jul-04 18:30N 53°27' W 003°01'37 6.2
2020-Jul-04 12:30N 53°33' W 004°03'66 6.9
2020-Jul-04 03:00N 53°23' W 005°52'9317.0
2020-Jul-03 21:31N 53°31' W 003°16'815.6
2020-Jul-03 21:00N 53°28' W 003°04'2 0.6
2020-Jul-03 17:58N 53°27' W 003°01'0 0.0
2020-Jul-03 16:30N 53°27' W 003°01'0 0.0
2020-Jul-03 16:00N 53°27' W 003°01'0 0.9
2020-Jul-03 15:30N 53°27' W 003°01'6 5.7
2020-Jul-03 14:30N 53°31' W 003°07'714.9
2020-Jul-03 14:00N 53°31' W 003°20'917.1
2020-Jul-03 13:30N 53°31' W 003°34'6917.0
2020-Jul-03 09:25N 53°21' W 005°29'818.9
2020-Jul-03 08:59N 53°20' W 005°43'919.1
2020-Jul-03 08:30N 53°20' W 005°58'9 3.8
2020-Jul-03 06:11N 53°21' W 006°13'0 0.1
2020-Jul-03 04:00N 53°21' W 006°13'1313.2
2020-Jul-03 03:00N 53°24' W 005°51'816.7
2020-Jul-03 02:30N 53°26' W 005°37'9315.5
2020-Jul-02 20:31N 53°27' W 003°01'0 0.0
2020-Jul-02 19:29N 53°27' W 003°01'0 0.0
2020-Jul-02 18:28N 53°27' W 003°01'0 0.0
2020-Jul-02 16:01N 53°27' W 003°01'6 4.2
2020-Jul-02 14:31N 53°32' W 003°09'9617.3
2020-Jul-02 09:00N 53°24' W 005°49'15 5.4
2020-Jul-02 06:15N 53°21' W 006°13'0 0.1
2020-Jul-02 04:00N 53°21' W 006°13'5 9.8
2020-Jul-02 03:30N 53°20' W 006°04'11012.2
2020-Jul-01 18:30N 53°27' W 003°01'0 0.0
2020-Jul-01 16:00N 53°27' W 003°01'22 8.8
2020-Jul-01 13:30N 53°31' W 003°37'9311.6
2020-Jul-01 05:27N 53°21' W 006°13'0 0.3
2020-Jul-01 04:00N 53°21' W 006°12'2114.2
2020-Jul-01 02:30N 53°26' W 005°38'8917.8
2020-Jun-30 21:31N 53°32' W 003°09'6 2.1
2020-Jun-30 18:30N 53°27' W 003°01'0 0.0
2020-Jun-30 17:59N 53°27' W 003°01'0 0.0
2020-Jun-30 17:29N 53°27' W 003°01'0 0.0
2020-Jun-30 16:29N 53°27' W 003°01'0 0.4
2020-Jun-30 15:30N 53°27' W 003°01'6 6.3
2020-Jun-30 14:31N 53°32' W 003°08'1716.6
2020-Jun-30 13:31N 53°31' W 003°36'9415.6
2020-Jun-30 07:28N 53°21' W 006°13'0 0.0
2020-Jun-30 06:19N 53°21' W 006°13'5 1.8
2020-Jun-30 03:30N 53°20' W 006°05'1414.1
2020-Jun-30 02:30N 53°25' W 005°42'7015.9
2020-Jun-29 22:06N 53°34' W 003°46'1016.7
2020-Jun-29 21:30N 53°33' W 003°29'18 3.5
2020-Jun-29 16:30N 53°27' W 003°01'0 0.0
2020-Jun-29 16:00N 53°27' W 003°01'0 0.0
2020-Jun-29 13:59N 53°27' W 003°01'0 0.0
2020-Jun-29 13:29N 53°27' W 003°01'0 0.0
2020-Jun-29 06:59N 53°27' W 003°01'0 0.3
2020-Jun-29 05:30N 53°27' W 003°01'8 8.4
2020-Jun-29 04:31N 53°31' W 003°13'10810.7
2020-Jun-28 18:30N 53°21' W 006°13'0 0.0
2020-Jun-28 14:28N 53°21' W 006°13'0 0.0
2020-Jun-28 13:30N 53°21' W 006°13'0 0.0
2020-Jun-28 11:45N 53°21' W 006°13'0 0.0
2020-Jun-28 07:28N 53°21' W 006°13'0 0.1
2020-Jun-28 05:00N 53°21' W 006°13'8413.9
2020-Jun-27 22:58N 53°34' W 003°54'714.9
2020-Jun-27 22:30N 53°33' W 003°43'25 8.4
2020-Jun-27 19:29N 53°27' W 003°01'0 0.0
2020-Jun-27 18:59N 53°27' W 003°01'  

Dump ship's entire track history